createdAt,value
2022-07-30T00:00:23.790Z,21.01
2022-07-30T00:02:52.483Z,20.93
2022-07-30T00:05:20.243Z,20.93
2022-07-30T00:07:47.511Z,20.86
2022-07-30T00:10:14.656Z,20.72
2022-07-30T00:12:41.959Z,20.74
2022-07-30T00:15:09.669Z,20.63
2022-07-30T00:17:36.542Z,20.64
2022-07-30T00:20:04.659Z,20.57
2022-07-30T00:22:32.213Z,20.40
2022-07-30T00:24:59.146Z,20.41
2022-07-30T00:27:26.587Z,20.39
2022-07-30T00:29:55.381Z,20.18
2022-07-30T00:32:22.269Z,20.32
2022-07-30T00:34:49.167Z,20.30
2022-07-30T00:37:16.096Z,20.28
2022-07-30T00:39:43.057Z,20.31
2022-07-30T00:42:10.012Z,20.31
2022-07-30T00:44:37.252Z,20.27
2022-07-30T00:47:08.350Z,20.21
2022-07-30T00:49:35.141Z,20.11
2022-07-30T00:52:02.209Z,20.18
2022-07-30T00:54:29.563Z,20.12
2022-07-30T00:56:58.213Z,20.09
2022-07-30T00:59:28.637Z,20.00
2022-07-30T01:01:55.967Z,20.02
2022-07-30T01:04:22.793Z,20.03
2022-07-30T01:06:49.996Z,20.02
2022-07-30T01:09:16.930Z,20.01
2022-07-30T01:11:44.262Z,19.97
2022-07-30T01:14:11.288Z,19.93
2022-07-30T01:16:41.477Z,19.95
2022-07-30T01:19:39.011Z,19.90
2022-07-30T01:22:14.982Z,19.81
2022-07-30T01:24:56.054Z,19.74
2022-07-30T01:27:25.455Z,19.67
2022-07-30T01:29:54.810Z,19.70
2022-07-30T01:32:25.809Z,19.62
2022-07-30T01:34:55.763Z,19.51
2022-07-30T01:37:24.328Z,19.48
2022-07-30T01:39:52.515Z,19.56
2022-07-30T01:42:21.708Z,19.48
2022-07-30T01:44:50.358Z,19.47
2022-07-30T01:47:20.497Z,19.47
2022-07-30T01:49:49.557Z,19.44
2022-07-30T01:52:18.490Z,19.46
2022-07-30T01:54:48.696Z,19.45
2022-07-30T01:57:19.587Z,19.43
2022-07-30T01:59:50.680Z,19.42
2022-07-30T02:02:19.164Z,19.26
2022-07-30T02:04:47.003Z,19.34
2022-07-30T02:07:23.954Z,19.25
2022-07-30T02:10:10.930Z,19.29
2022-07-30T02:12:54.629Z,19.17
2022-07-30T02:15:31.819Z,19.27
2022-07-30T02:18:18.092Z,18.96
2022-07-30T02:21:02.632Z,19.11
2022-07-30T02:23:46.535Z,19.10
2022-07-30T02:26:18.735Z,19.16
2022-07-30T02:28:49.571Z,19.11
2022-07-30T02:31:21.090Z,19.16
2022-07-30T02:33:50.899Z,19.13
2022-07-30T02:36:20.298Z,19.08
2022-07-30T02:38:50.882Z,19.17
2022-07-30T02:41:22.378Z,19.17
2022-07-30T02:43:52.369Z,19.20
2022-07-30T02:46:23.250Z,19.22
2022-07-30T02:49:22.540Z,19.21
2022-07-30T02:51:51.671Z,19.12
2022-07-30T02:54:20.295Z,19.00
2022-07-30T02:56:49.679Z,19.06
2022-07-30T02:59:19.993Z,19.06
2022-07-30T03:01:48.969Z,18.98
2022-07-30T03:04:20.667Z,18.95
2022-07-30T03:06:49.640Z,19.03
2022-07-30T03:09:17.767Z,19.00
2022-07-30T03:11:46.007Z,19.01
2022-07-30T03:14:13.037Z,18.99
2022-07-30T03:16:43.897Z,19.04
2022-07-30T03:19:12.214Z,19.02
2022-07-30T03:21:41.519Z,19.06
2022-07-30T03:24:11.077Z,19.03
2022-07-30T03:26:40.021Z,18.95
2022-07-30T03:29:09.698Z,18.84
2022-07-30T03:31:40.075Z,18.91
2022-07-30T03:34:08.970Z,18.88
2022-07-30T03:36:36.463Z,18.85
2022-07-30T03:39:05.608Z,18.90
2022-07-30T03:41:32.872Z,18.94
2022-07-30T03:44:01.379Z,18.95
2022-07-30T03:46:29.920Z,18.99
2022-07-30T03:48:57.907Z,19.04
2022-07-30T03:51:25.719Z,19.03
2022-07-30T03:54:00.866Z,19.10
2022-07-30T03:56:31.382Z,19.15
2022-07-30T03:59:08.252Z,19.13
2022-07-30T04:01:38.819Z,19.16
2022-07-30T04:04:11.912Z,19.15
2022-07-30T04:06:40.541Z,19.34
2022-07-30T04:09:12.344Z,19.33
2022-07-30T04:11:41.223Z,19.36
2022-07-30T04:14:11.167Z,19.43
2022-07-30T04:17:04.068Z,19.49
2022-07-30T04:19:36.758Z,19.53
2022-07-30T04:22:06.302Z,19.55
2022-07-30T04:24:36.272Z,19.75
2022-07-30T04:27:05.181Z,19.83
2022-07-30T04:29:32.420Z,19.95
2022-07-30T04:31:59.751Z,20.09
2022-07-30T04:34:49.634Z,20.22
2022-07-30T04:37:23.900Z,20.32
2022-07-30T04:39:54.856Z,20.44
2022-07-30T04:42:22.184Z,20.62
2022-07-30T04:44:58.992Z,20.76
2022-07-30T04:47:28.557Z,20.85
2022-07-30T04:50:18.090Z,21.04
2022-07-30T04:52:46.641Z,21.19
2022-07-30T04:55:20.764Z,21.22
2022-07-30T04:57:51.104Z,21.36
2022-07-30T05:00:18.458Z,21.46
2022-07-30T05:02:47.528Z,21.70
2022-07-30T05:05:16.233Z,21.88
2022-07-30T05:07:45.914Z,22.05
2022-07-30T05:10:14.360Z,22.12
2022-07-30T05:12:42.302Z,22.23
2022-07-30T05:15:10.722Z,22.28
2022-07-30T05:17:38.105Z,22.42
2022-07-30T05:20:09.720Z,22.51
2022-07-30T05:22:54.901Z,22.56
2022-07-30T05:25:22.794Z,22.67
2022-07-30T05:27:52.613Z,22.77
2022-07-30T05:30:19.736Z,22.84
2022-07-30T05:32:54.823Z,22.98
2022-07-30T05:35:23.422Z,23.08
2022-07-30T05:37:50.230Z,23.20
2022-07-30T05:40:19.052Z,23.35
2022-07-30T05:43:21.246Z,23.36
2022-07-30T05:45:48.139Z,23.58
2022-07-30T05:48:14.996Z,23.76
2022-07-30T05:50:41.807Z,23.85
2022-07-30T05:53:08.609Z,23.94
2022-07-30T05:56:01.255Z,23.98
2022-07-30T05:58:57.325Z,24.07
2022-07-30T06:01:44.312Z,24.21
2022-07-30T06:04:17.789Z,24.32
2022-07-30T06:06:48.623Z,24.42
2022-07-30T06:09:16.116Z,24.48
2022-07-30T06:11:42.882Z,24.61
2022-07-30T06:14:09.959Z,24.76
2022-07-30T06:16:37.398Z,24.83
2022-07-30T06:19:04.565Z,24.94
2022-07-30T06:22:05.878Z,25.06
2022-07-30T06:24:30.665Z,25.24
2022-07-30T06:27:04.636Z,25.44
2022-07-30T06:29:31.732Z,25.54
2022-07-30T06:31:59.187Z,25.70
2022-07-30T06:34:26.122Z,25.84
2022-07-30T06:36:53.789Z,26.03
2022-07-30T06:39:55.997Z,26.18
2022-07-30T06:42:08.515Z,26.10
2022-07-30T06:45:01.338Z,26.14
2022-07-30T06:47:43.555Z,26.37
2022-07-30T06:50:10.340Z,26.55
2022-07-30T06:52:38.607Z,26.73
2022-07-30T06:55:06.011Z,26.80
2022-07-30T06:57:42.451Z,26.96
2022-07-30T07:00:21.025Z,26.95
2022-07-30T07:02:47.909Z,27.01
2022-07-30T07:05:18.035Z,26.91
2022-07-30T07:07:58.168Z,27.11
2022-07-30T07:10:28.834Z,27.30
2022-07-30T07:13:07.336Z,27.45
2022-07-30T07:15:36.929Z,27.64
2022-07-30T07:18:08.348Z,27.67
2022-07-30T07:20:38.276Z,28.00
2022-07-30T07:23:09.382Z,28.09
2022-07-30T07:25:40.845Z,28.15
2022-07-30T07:28:11.660Z,28.25
2022-07-30T07:30:41.652Z,28.23
2022-07-30T07:33:09.090Z,28.34
2022-07-30T07:35:48.549Z,28.40
2022-07-30T07:38:21.996Z,28.52
2022-07-30T07:40:53.664Z,28.64
2022-07-30T07:43:21.017Z,28.78
2022-07-30T07:45:47.944Z,28.94
2022-07-30T07:48:14.854Z,29.07
2022-07-30T07:50:59.952Z,29.21
2022-07-30T07:53:29.784Z,29.39
2022-07-30T07:55:57.299Z,29.50
2022-07-30T07:58:26.068Z,29.54
2022-07-30T08:00:54.812Z,29.53
2022-07-30T08:03:26.893Z,29.71
2022-07-30T08:06:06.652Z,29.77
2022-07-30T08:08:47.946Z,29.93
2022-07-30T08:11:50.509Z,30.18
2022-07-30T08:14:35.616Z,30.42
2022-07-30T08:17:42.142Z,30.58
2022-07-30T08:20:21.752Z,30.66
2022-07-30T08:22:48.819Z,30.60
2022-07-30T08:25:22.146Z,30.75
2022-07-30T08:27:52.509Z,30.85
2022-07-30T08:30:20.566Z,30.93
2022-07-30T08:32:47.819Z,31.02
2022-07-30T08:35:14.765Z,31.15
2022-07-30T08:37:42.327Z,31.19
2022-07-30T08:40:10.003Z,31.32
2022-07-30T08:42:46.737Z,31.47
2022-07-30T08:45:15.008Z,31.74
2022-07-30T08:47:46.099Z,32.00
2022-07-30T08:50:22.217Z,32.18
2022-07-30T08:53:08.689Z,32.34
2022-07-30T08:55:35.698Z,32.51
2022-07-30T08:58:04.351Z,32.74
2022-07-30T09:00:31.594Z,32.72
2022-07-30T09:02:59.284Z,32.84
2022-07-30T09:05:26.287Z,32.86
2022-07-30T09:07:53.501Z,32.97
2022-07-30T09:10:24.332Z,33.10
2022-07-30T09:12:51.441Z,33.33
2022-07-30T09:15:20.860Z,33.08
2022-07-30T09:17:50.662Z,33.19
2022-07-30T09:20:27.373Z,33.31
2022-07-30T09:22:56.940Z,33.48
2022-07-30T09:25:49.750Z,33.65
2022-07-30T09:28:35.012Z,33.88
2022-07-30T09:31:14.291Z,33.70
2022-07-30T09:33:59.468Z,33.91
2022-07-30T09:36:44.873Z,33.55
2022-07-30T09:39:39.322Z,33.92
2022-07-30T09:42:22.479Z,34.14
2022-07-30T09:44:52.411Z,34.35
2022-07-30T09:47:33.585Z,34.61
2022-07-30T09:50:07.525Z,34.73
2022-07-30T09:52:34.669Z,34.96
2022-07-30T09:55:01.634Z,35.07
2022-07-30T09:57:30.826Z,35.08
2022-07-30T10:00:23.602Z,34.97
2022-07-30T10:03:38.515Z,35.16
2022-07-30T10:06:35.549Z,35.38
2022-07-30T10:09:28.581Z,35.58
2022-07-30T10:12:03.339Z,35.86
2022-07-30T10:14:42.535Z,35.58
2022-07-30T10:17:12.882Z,35.95
2022-07-30T10:19:42.088Z,35.87
2022-07-30T10:22:28.773Z,36.16
2022-07-30T10:25:05.585Z,36.32
2022-07-30T10:27:51.772Z,36.17
2022-07-30T10:30:29.174Z,36.23
2022-07-30T10:32:58.688Z,36.48
2022-07-30T10:35:34.677Z,36.07
2022-07-30T10:38:13.708Z,35.84
2022-07-30T10:40:48.629Z,36.28
2022-07-30T10:43:37.728Z,36.55
2022-07-30T10:46:22.135Z,36.58
2022-07-30T10:48:50.754Z,36.52
2022-07-30T10:51:18.559Z,36.79
2022-07-30T10:53:52.613Z,36.65
2022-07-30T10:56:25.987Z,36.79
2022-07-30T10:59:07.715Z,36.98
2022-07-30T11:02:08.893Z,36.93
2022-07-30T11:04:37.342Z,37.02
2022-07-30T11:07:23.417Z,37.31
2022-07-30T11:10:04.986Z,36.72
2022-07-30T11:12:45.787Z,36.98
2022-07-30T11:15:18.510Z,37.12
2022-07-30T11:17:58.323Z,36.82
2022-07-30T11:20:25.891Z,37.45
2022-07-30T11:22:54.027Z,38.08
2022-07-30T11:25:27.520Z,38.50
2022-07-30T11:28:49.305Z,38.67
2022-07-30T11:31:55.839Z,38.79
2022-07-30T11:34:19.643Z,39.07
2022-07-30T11:37:18.621Z,39.24
2022-07-30T11:39:55.398Z,39.33
2022-07-30T11:42:26.140Z,39.56
2022-07-30T11:44:53.693Z,39.72
2022-07-30T11:47:20.777Z,40.09
2022-07-30T11:49:47.586Z,40.37
2022-07-30T11:52:23.467Z,40.41
2022-07-30T11:54:54.617Z,40.15
2022-07-30T11:57:39.057Z,40.22
2022-07-30T12:00:07.126Z,40.47
2022-07-30T12:02:41.439Z,40.17
2022-07-30T12:05:08.451Z,38.82
2022-07-30T12:07:35.467Z,39.60
2022-07-30T12:10:27.000Z,39.52
2022-07-30T12:13:08.055Z,39.97
2022-07-30T12:15:37.845Z,40.18
2022-07-30T12:18:25.487Z,40.11
2022-07-30T12:21:02.657Z,40.30
2022-07-30T12:23:30.989Z,40.86
2022-07-30T12:25:58.947Z,41.10
2022-07-30T12:28:28.443Z,41.12
2022-07-30T12:30:56.583Z,41.19
2022-07-30T12:33:24.237Z,40.68
2022-07-30T12:35:53.842Z,40.27
2022-07-30T12:38:22.902Z,39.65
2022-07-30T12:41:00.224Z,39.28
2022-07-30T12:43:54.259Z,37.94
2022-07-30T12:46:22.101Z,38.23
2022-07-30T12:48:57.872Z,38.74
2022-07-30T12:51:29.131Z,39.28
2022-07-30T12:53:57.300Z,40.09
2022-07-30T12:56:29.628Z,40.21
2022-07-30T12:58:59.988Z,39.79
2022-07-30T13:01:44.315Z,39.85
2022-07-30T13:04:12.408Z,39.38
2022-07-30T13:06:40.893Z,39.66
2022-07-30T13:09:17.792Z,38.83
2022-07-30T13:11:48.531Z,39.35
2022-07-30T13:14:17.503Z,39.83
2022-07-30T13:16:44.489Z,39.63
2022-07-30T13:19:12.259Z,40.02
2022-07-30T13:21:40.149Z,40.50
2022-07-30T13:24:18.263Z,40.67
2022-07-30T13:26:45.958Z,40.89
2022-07-30T13:29:13.711Z,41.38
2022-07-30T13:31:42.509Z,41.70
2022-07-30T13:34:11.567Z,41.91
2022-07-30T13:36:38.417Z,42.37
2022-07-30T13:39:05.590Z,41.43
2022-07-30T13:41:33.332Z,40.44
2022-07-30T13:44:00.245Z,40.25
2022-07-30T13:46:27.227Z,40.12
2022-07-30T13:48:55.040Z,40.41
2022-07-30T13:51:22.212Z,40.17
2022-07-30T13:53:49.185Z,39.79
2022-07-30T13:56:16.857Z,39.11
2022-07-30T13:58:47.356Z,38.46
2022-07-30T14:01:17.782Z,38.17
2022-07-30T14:03:50.277Z,38.76
2022-07-30T14:06:18.895Z,39.23
2022-07-30T14:08:45.884Z,39.54
2022-07-30T14:11:12.708Z,40.09
2022-07-30T14:13:39.751Z,39.97
2022-07-30T14:16:22.769Z,39.99
2022-07-30T14:18:53.712Z,39.68
2022-07-30T14:21:20.528Z,40.07
2022-07-30T14:23:47.913Z,40.31
2022-07-30T14:26:15.128Z,39.61
2022-07-30T14:28:41.958Z,39.86
2022-07-30T14:31:08.848Z,40.01
2022-07-30T14:33:35.841Z,39.98
2022-07-30T14:36:02.615Z,40.21
2022-07-30T14:38:29.451Z,40.12
2022-07-30T14:40:56.343Z,40.12
2022-07-30T14:43:24.951Z,39.31
2022-07-30T14:45:53.430Z,38.59
2022-07-30T14:48:20.488Z,38.24
2022-07-30T14:51:12.145Z,37.26
2022-07-30T14:53:34.315Z,36.58
2022-07-30T14:56:01.344Z,36.06
2022-07-30T14:58:28.313Z,35.77
2022-07-30T15:00:55.772Z,35.45
2022-07-30T15:03:23.322Z,35.31
2022-07-30T15:05:53.001Z,34.97
2022-07-30T15:08:19.899Z,34.90
2022-07-30T15:10:46.796Z,34.70
2022-07-30T15:13:14.796Z,34.22
2022-07-30T15:15:43.930Z,33.93
2022-07-30T15:18:13.310Z,33.67
2022-07-30T15:20:40.263Z,33.30
2022-07-30T15:23:11.658Z,32.85
2022-07-30T15:25:41.185Z,32.38
2022-07-30T15:28:08.017Z,31.97
2022-07-30T15:30:34.854Z,31.28
2022-07-30T15:33:02.318Z,30.68
2022-07-30T15:35:29.155Z,29.11
2022-07-30T15:37:56.008Z,27.95
2022-07-30T15:40:22.913Z,27.16
2022-07-30T15:42:49.929Z,27.20
2022-07-30T15:45:20.059Z,26.41
2022-07-30T15:47:48.185Z,25.71
2022-07-30T15:50:16.801Z,25.19
2022-07-30T15:52:44.709Z,24.80
2022-07-30T15:55:11.988Z,24.91
2022-07-30T15:57:38.982Z,24.89
2022-07-30T16:00:08.468Z,24.59
2022-07-30T16:02:43.618Z,24.33
2022-07-30T16:05:14.189Z,24.03
2022-07-30T16:07:42.001Z,24.11
2022-07-30T16:10:09.782Z,24.35
2022-07-30T16:12:37.209Z,24.55
2022-07-30T16:15:04.294Z,24.80
2022-07-30T16:17:31.232Z,25.13
2022-07-30T16:19:58.117Z,25.98
2022-07-30T16:22:25.579Z,27.05
2022-07-30T16:24:52.691Z,28.06
2022-07-30T16:27:19.596Z,28.30
2022-07-30T16:29:46.375Z,27.96
2022-07-30T16:32:13.197Z,27.42
2022-07-30T16:34:40.168Z,27.04
2022-07-30T16:37:07.030Z,26.76
2022-07-30T16:39:33.820Z,26.60
2022-07-30T16:42:01.090Z,26.59
2022-07-30T16:44:31.644Z,26.60
2022-07-30T16:46:58.792Z,26.50
2022-07-30T16:49:26.634Z,26.52
2022-07-30T16:51:54.263Z,26.49
2022-07-30T16:54:21.213Z,26.56
2022-07-30T16:56:52.714Z,26.50
2022-07-30T16:59:23.112Z,26.24
2022-07-30T17:01:50.405Z,26.12
2022-07-30T17:04:17.773Z,26.09
2022-07-30T17:06:44.763Z,26.11
2022-07-30T17:09:15.853Z,26.37
2022-07-30T17:11:46.698Z,26.43
2022-07-30T17:14:15.187Z,26.43
2022-07-30T17:16:43.005Z,26.40
2022-07-30T17:19:09.987Z,26.40
2022-07-30T17:21:38.195Z,26.31
2022-07-30T17:24:11.106Z,26.29
2022-07-30T17:26:43.428Z,26.04
2022-07-30T17:29:14.699Z,25.94
2022-07-30T17:31:45.720Z,25.67
2022-07-30T17:34:14.874Z,25.48
2022-07-30T17:36:45.884Z,25.34
2022-07-30T17:40:18.800Z,25.18
2022-07-30T17:42:13.324Z,24.91
2022-07-30T17:44:42.636Z,24.91
2022-07-30T17:47:14.388Z,24.79
2022-07-30T17:49:42.162Z,24.61
2022-07-30T17:52:09.279Z,24.50
2022-07-30T17:54:36.145Z,24.42
2022-07-30T17:57:03.049Z,24.21
2022-07-30T17:59:30.128Z,24.20
2022-07-30T18:01:59.880Z,24.12
2022-07-30T18:04:27.365Z,24.09
2022-07-30T18:06:54.260Z,24.09
2022-07-30T18:09:21.290Z,24.04
2022-07-30T18:11:49.060Z,23.91
2022-07-30T18:14:16.086Z,23.97
2022-07-30T18:16:43.066Z,23.97
2022-07-30T18:19:22.582Z,23.92
2022-07-30T18:21:56.604Z,23.86
2022-07-30T18:24:24.762Z,23.85
2022-07-30T18:26:52.021Z,23.85
2022-07-30T18:29:18.991Z,23.85
2022-07-30T18:31:47.989Z,23.90
2022-07-30T18:34:15.154Z,23.89
2022-07-30T18:36:42.256Z,23.51
2022-07-30T18:39:09.025Z,22.97
2022-07-30T18:41:35.843Z,22.22
2022-07-30T18:44:02.719Z,21.28
2022-07-30T18:46:29.593Z,20.54
2022-07-30T18:48:57.063Z,19.90
2022-07-30T18:51:25.380Z,19.51
2022-07-30T18:53:54.824Z,19.19
2022-07-30T18:56:21.728Z,19.17
2022-07-30T18:58:48.739Z,19.11
2022-07-30T19:01:18.550Z,19.17
2022-07-30T19:03:46.368Z,19.15
2022-07-30T19:06:13.224Z,19.08
2022-07-30T19:08:39.981Z,19.04
2022-07-30T19:11:07.013Z,18.99
2022-07-30T19:13:33.885Z,19.00
2022-07-30T19:16:00.741Z,18.95
2022-07-30T19:18:27.653Z,18.90
2022-07-30T19:20:54.547Z,18.93
2022-07-30T19:23:21.552Z,18.93
2022-07-30T19:25:48.385Z,18.89
2022-07-30T19:28:17.183Z,18.78
2022-07-30T19:30:44.273Z,18.81
2022-07-30T19:33:15.640Z,18.80
2022-07-30T19:35:43.188Z,18.78
2022-07-30T19:38:11.864Z,18.72
2022-07-30T19:40:42.358Z,18.73
2022-07-30T19:43:10.332Z,18.68
2022-07-30T19:45:47.592Z,18.58
2022-07-30T19:48:29.293Z,18.53
2022-07-30T19:51:00.686Z,18.52
2022-07-30T19:53:31.202Z,18.53
2022-07-30T19:56:01.834Z,18.50
2022-07-30T19:58:33.951Z,18.48
2022-07-30T20:01:02.329Z,18.51
2022-07-30T20:03:36.073Z,18.55
2022-07-30T20:06:06.039Z,18.51
2022-07-30T20:08:35.638Z,18.60
2022-07-30T20:11:06.200Z,18.56
2022-07-30T20:13:44.519Z,18.59
2022-07-30T20:16:14.389Z,18.61
2022-07-30T20:18:42.979Z,18.59
2022-07-30T20:21:14.966Z,18.60
2022-07-30T20:23:42.386Z,18.63
2022-07-30T20:26:12.927Z,18.67
2022-07-30T20:28:42.098Z,18.72
2022-07-30T20:31:09.003Z,18.77
2022-07-30T20:33:39.145Z,18.86
2022-07-30T20:36:09.844Z,18.85
2022-07-30T20:38:38.985Z,18.87
2022-07-30T20:41:09.986Z,18.89
2022-07-30T20:43:45.820Z,18.94
2022-07-30T20:46:13.889Z,18.85
2022-07-30T20:48:42.502Z,18.83
2022-07-30T20:51:12.000Z,18.80
2022-07-30T20:53:38.826Z,18.65
2022-07-30T20:56:05.753Z,18.60
2022-07-30T20:58:32.528Z,18.56
2022-07-30T21:01:00.584Z,18.54
2022-07-30T21:03:31.869Z,18.48
2022-07-30T21:05:59.105Z,18.45
2022-07-30T21:08:27.189Z,18.36
2022-07-30T21:10:55.475Z,18.21
2022-07-30T21:13:25.087Z,18.34
2022-07-30T21:16:01.778Z,18.35
2022-07-30T21:18:29.565Z,18.32
2022-07-30T21:20:57.697Z,18.34
2022-07-30T21:23:25.206Z,18.33
2022-07-30T21:26:00.492Z,18.38
2022-07-30T21:28:35.194Z,18.36
2022-07-30T21:31:04.065Z,18.37
2022-07-30T21:33:37.845Z,18.38
2022-07-30T21:36:10.214Z,18.41
2022-07-30T21:38:39.116Z,18.32
2022-07-30T21:41:14.332Z,18.39
2022-07-30T21:43:44.012Z,18.52
2022-07-30T21:46:11.324Z,18.43
2022-07-30T21:48:38.155Z,18.55
2022-07-30T21:51:06.830Z,18.38
2022-07-30T21:53:45.101Z,18.45
2022-07-30T21:56:13.890Z,18.57
2022-07-30T21:58:41.599Z,18.58
2022-07-30T22:01:16.214Z,18.53
2022-07-30T22:04:04.762Z,18.62
2022-07-30T22:06:39.184Z,18.56
2022-07-30T22:09:18.585Z,18.57
2022-07-30T22:11:55.880Z,18.49
2022-07-30T22:14:23.192Z,18.51
2022-07-30T22:16:52.704Z,18.60
2022-07-30T22:19:21.897Z,18.66
2022-07-30T22:21:50.942Z,18.68
2022-07-30T22:24:29.853Z,18.63
2022-07-30T22:27:12.463Z,18.78
2022-07-30T22:29:43.397Z,18.75
2022-07-30T22:32:12.121Z,18.74
2022-07-30T22:34:39.380Z,18.64
2022-07-30T22:37:09.237Z,18.65
2022-07-30T22:39:50.534Z,18.59
2022-07-30T22:42:24.354Z,18.47
2022-07-30T22:44:52.439Z,18.64
2022-07-30T22:50:08.107Z,18.66
2022-07-30T22:52:52.772Z,18.73
2022-07-30T22:55:27.047Z,18.76
2022-07-30T22:57:53.944Z,18.72
2022-07-30T23:00:27.906Z,18.66
2022-07-30T23:02:56.234Z,18.72
2022-07-30T23:05:23.588Z,18.72
2022-07-30T23:07:51.140Z,18.70
2022-07-30T23:10:20.677Z,18.67
2022-07-30T23:12:30.469Z,18.68
2022-07-30T23:12:53.345Z,18.68
2022-07-30T23:15:20.454Z,18.61
2022-07-30T23:17:47.914Z,18.69
2022-07-30T23:20:17.158Z,18.69
2022-07-30T23:22:44.236Z,18.69
2022-07-30T23:25:11.889Z,18.54
2022-07-30T23:27:39.919Z,18.66
2022-07-30T23:30:08.435Z,18.65
2022-07-30T23:32:35.809Z,18.65
2022-07-30T23:35:02.944Z,18.63
2022-07-30T23:37:29.746Z,18.58
2022-07-30T23:40:14.961Z,18.62
2022-07-30T23:42:41.766Z,18.61
2022-07-30T23:45:08.933Z,18.61
2022-07-30T23:48:00.549Z,18.60
2022-07-30T23:50:22.604Z,18.56
2022-07-30T23:52:49.345Z,18.48
2022-07-30T23:55:17.315Z,18.43
2022-07-30T23:57:44.290Z,18.42
